sensor_id;sensor_type;location;lat;lon;timestamp;P1;durP1;ratioP1;P2;durP2;ratioP2
33108;SDS011;19481;51.118;6.940;2022-07-04T00:00:41;2.35;;;1.20;;
33108;SDS011;19481;51.118;6.940;2022-07-04T00:05:43;3.13;;;1.20;;
33108;SDS011;19481;51.118;6.940;2022-07-04T00:10:45;2.13;;;1.30;;
33108;SDS011;19481;51.118;6.940;2022-07-04T00:15:47;1.25;;;0.95;;
33108;SDS011;19481;51.118;6.940;2022-07-04T00:20:49;1.58;;;1.30;;
33108;SDS011;19481;51.118;6.940;2022-07-04T00:25:53;3.80;;;1.10;;
33108;SDS011;19481;51.118;6.940;2022-07-04T00:30:55;1.30;;;1.10;;
33108;SDS011;19481;51.118;6.940;2022-07-04T00:35:57;5.80;;;1.50;;
33108;SDS011;19481;51.118;6.940;2022-07-04T00:40:59;1.38;;;1.27;;
33108;SDS011;19481;51.118;6.940;2022-07-04T00:46:04;2.20;;;1.40;;
33108;SDS011;19481;51.118;6.940;2022-07-04T00:51:06;1.40;;;1.30;;
33108;SDS011;19481;51.118;6.940;2022-07-04T00:56:07;2.28;;;1.30;;
33108;SDS011;19481;51.118;6.940;2022-07-04T01:01:10;2.13;;;1.40;;
33108;SDS011;19481;51.118;6.940;2022-07-04T01:06:13;2.60;;;1.50;;
33108;SDS011;19481;51.118;6.940;2022-07-04T01:11:15;4.38;;;1.35;;
33108;SDS011;19481;51.118;6.940;2022-07-04T01:16:19;2.88;;;2.15;;
33108;SDS011;19481;51.118;6.940;2022-07-04T01:21:22;1.60;;;1.20;;
33108;SDS011;19481;51.118;6.940;2022-07-04T01:26:23;9.27;;;1.48;;
33108;SDS011;19481;51.118;6.940;2022-07-04T01:31:25;1.67;;;1.40;;
33108;SDS011;19481;51.118;6.940;2022-07-04T01:36:28;2.92;;;1.23;;
33108;SDS011;19481;51.118;6.940;2022-07-04T01:41:32;7.07;;;1.20;;
33108;SDS011;19481;51.118;6.940;2022-07-04T01:46:35;2.72;;;1.55;;
33108;SDS011;19481;51.118;6.940;2022-07-04T01:51:44;6.00;;;1.35;;
33108;SDS011;19481;51.118;6.940;2022-07-04T01:56:46;2.15;;;1.20;;
33108;SDS011;19481;51.118;6.940;2022-07-04T02:01:47;3.22;;;1.20;;
33108;SDS011;19481;51.118;6.940;2022-07-04T02:06:50;1.55;;;1.45;;
33108;SDS011;19481;51.118;6.940;2022-07-04T02:11:52;3.60;;;1.35;;
33108;SDS011;19481;51.118;6.940;2022-07-04T02:17:23;2.75;;;1.35;;
33108;SDS011;19481;51.118;6.940;2022-07-04T02:22:27;2.25;;;1.30;;
33108;SDS011;19481;51.118;6.940;2022-07-04T02:27:28;2.90;;;1.42;;
33108;SDS011;19481;51.118;6.940;2022-07-04T02:32:30;5.25;;;1.70;;
33108;SDS011;19481;51.118;6.940;2022-07-04T02:37:33;2.33;;;1.40;;
33108;SDS011;19481;51.118;6.940;2022-07-04T02:42:35;1.85;;;1.25;;
33108;SDS011;19481;51.118;6.940;2022-07-04T02:47:37;4.10;;;1.52;;
33108;SDS011;19481;51.118;6.940;2022-07-04T02:52:40;1.95;;;1.13;;
33108;SDS011;19481;51.118;6.940;2022-07-04T02:57:41;2.17;;;1.50;;
33108;SDS011;19481;51.118;6.940;2022-07-04T03:02:43;1.50;;;1.40;;
33108;SDS011;19481;51.118;6.940;2022-07-04T03:07:46;3.65;;;1.25;;
33108;SDS011;19481;51.118;6.940;2022-07-04T03:12:47;1.83;;;1.42;;
33108;SDS011;19481;51.118;6.940;2022-07-04T03:17:49;4.82;;;1.52;;
33108;SDS011;19481;51.118;6.940;2022-07-04T03:22:52;3.03;;;1.60;;
33108;SDS011;19481;51.118;6.940;2022-07-04T03:27:54;3.25;;;1.40;;
33108;SDS011;19481;51.118;6.940;2022-07-04T03:32:56;1.52;;;1.30;;
33108;SDS011;19481;51.118;6.940;2022-07-04T03:38:00;2.38;;;1.65;;
33108;SDS011;19481;51.118;6.940;2022-07-04T03:43:02;3.33;;;1.85;;
33108;SDS011;19481;51.118;6.940;2022-07-04T03:48:04;2.25;;;1.35;;
33108;SDS011;19481;51.118;6.940;2022-07-04T03:53:07;5.00;;;1.63;;
33108;SDS011;19481;51.118;6.940;2022-07-04T03:58:09;2.95;;;1.52;;
33108;SDS011;19481;51.118;6.940;2022-07-04T04:03:10;3.75;;;1.73;;
33108;SDS011;19481;51.118;6.940;2022-07-04T04:08:27;3.03;;;1.65;;
33108;SDS011;19481;51.118;6.940;2022-07-04T04:13:29;2.20;;;1.55;;
33108;SDS011;19481;51.118;6.940;2022-07-04T04:18:30;1.50;;;1.40;;
33108;SDS011;19481;51.118;6.940;2022-07-04T04:23:33;4.10;;;1.83;;
33108;SDS011;19481;51.118;6.940;2022-07-04T04:28:35;3.97;;;1.80;;
33108;SDS011;19481;51.118;6.940;2022-07-04T04:33:36;1.85;;;1.75;;
33108;SDS011;19481;51.118;6.940;2022-07-04T04:38:40;1.85;;;1.65;;
33108;SDS011;19481;51.118;6.940;2022-07-04T04:43:41;2.75;;;1.52;;
33108;SDS011;19481;51.118;6.940;2022-07-04T04:48:43;3.30;;;2.10;;
33108;SDS011;19481;51.118;6.940;2022-07-04T04:53:46;4.05;;;2.03;;
33108;SDS011;19481;51.118;6.940;2022-07-04T04:58:47;3.28;;;1.88;;
33108;SDS011;19481;51.118;6.940;2022-07-04T05:03:49;2.63;;;1.88;;
33108;SDS011;19481;51.118;6.940;2022-07-04T05:08:52;4.50;;;1.70;;
33108;SDS011;19481;51.118;6.940;2022-07-04T05:13:53;2.58;;;2.00;;
33108;SDS011;19481;51.118;6.940;2022-07-04T05:18:55;2.78;;;1.60;;
33108;SDS011;19481;51.118;6.940;2022-07-04T05:23:58;8.52;;;2.10;;
33108;SDS011;19481;51.118;6.940;2022-07-04T05:29:00;2.47;;;1.95;;
33108;SDS011;19481;51.118;6.940;2022-07-04T05:34:02;7.68;;;4.13;;
33108;SDS011;19481;51.118;6.940;2022-07-04T05:39:04;10.25;;;6.18;;
33108;SDS011;19481;51.118;6.940;2022-07-04T05:44:06;1.92;;;1.73;;
33108;SDS011;19481;51.118;6.940;2022-07-04T05:49:08;2.80;;;1.80;;
33108;SDS011;19481;51.118;6.940;2022-07-04T05:54:10;3.85;;;2.03;;
33108;SDS011;19481;51.118;6.940;2022-07-04T05:59:12;5.22;;;2.20;;
33108;SDS011;19481;51.118;6.940;2022-07-04T06:04:14;3.30;;;2.33;;
33108;SDS011;19481;51.118;6.940;2022-07-04T06:09:17;8.48;;;2.40;;
33108;SDS011;19481;51.118;6.940;2022-07-04T06:14:19;3.38;;;1.92;;
33108;SDS011;19481;51.118;6.940;2022-07-04T06:19:20;8.10;;;1.95;;
33108;SDS011;19481;51.118;6.940;2022-07-04T06:24:23;8.57;;;1.90;;
33108;SDS011;19481;51.118;6.940;2022-07-04T06:29:25;3.00;;;1.88;;
33108;SDS011;19481;51.118;6.940;2022-07-04T06:34:27;7.32;;;1.92;;
33108;SDS011;19481;51.118;6.940;2022-07-04T06:39:48;7.22;;;2.05;;
33108;SDS011;19481;51.118;6.940;2022-07-04T06:44:49;5.18;;;1.90;;
33108;SDS011;19481;51.118;6.940;2022-07-04T06:49:51;4.55;;;1.67;;
33108;SDS011;19481;51.118;6.940;2022-07-04T06:54:54;3.47;;;1.60;;
33108;SDS011;19481;51.118;6.940;2022-07-04T06:59:55;4.13;;;1.60;;
33108;SDS011;19481;51.118;6.940;2022-07-04T07:04:57;7.05;;;1.73;;
33108;SDS011;19481;51.118;6.940;2022-07-04T07:10:00;6.60;;;4.93;;
33108;SDS011;19481;51.118;6.940;2022-07-04T07:15:03;4.72;;;2.10;;
33108;SDS011;19481;51.118;6.940;2022-07-04T07:20:05;3.10;;;1.45;;
33108;SDS011;19481;51.118;6.940;2022-07-04T07:25:09;2.70;;;1.60;;
33108;SDS011;19481;51.118;6.940;2022-07-04T07:30:12;4.30;;;1.40;;
33108;SDS011;19481;51.118;6.940;2022-07-04T07:35:14;3.28;;;1.30;;
33108;SDS011;19481;51.118;6.940;2022-07-04T07:40:17;2.78;;;1.20;;
33108;SDS011;19481;51.118;6.940;2022-07-04T07:45:19;2.50;;;0.93;;
33108;SDS011;19481;51.118;6.940;2022-07-04T07:50:20;1.17;;;0.70;;
33108;SDS011;19481;51.118;6.940;2022-07-04T07:55:23;2.45;;;1.10;;
33108;SDS011;19481;51.118;6.940;2022-07-04T08:00:25;1.90;;;0.98;;
33108;SDS011;19481;51.118;6.940;2022-07-04T08:05:27;4.68;;;0.88;;
33108;SDS011;19481;51.118;6.940;2022-07-04T08:10:30;1.55;;;0.70;;
33108;SDS011;19481;51.118;6.940;2022-07-04T08:15:31;1.70;;;0.80;;
33108;SDS011;19481;51.118;6.940;2022-07-04T08:20:33;2.05;;;0.70;;
33108;SDS011;19481;51.118;6.940;2022-07-04T08:25:36;0.90;;;0.60;;
33108;SDS011;19481;51.118;6.940;2022-07-04T08:30:38;0.85;;;0.52;;
33108;SDS011;19481;51.118;6.940;2022-07-04T08:35:39;2.38;;;0.52;;
33108;SDS011;19481;51.118;6.940;2022-07-04T08:40:42;1.50;;;0.88;;
33108;SDS011;19481;51.118;6.940;2022-07-04T08:45:44;2.50;;;0.65;;
33108;SDS011;19481;51.118;6.940;2022-07-04T08:50:49;0.65;;;0.40;;
33108;SDS011;19481;51.118;6.940;2022-07-04T08:55:54;0.55;;;0.50;;
33108;SDS011;19481;51.118;6.940;2022-07-04T09:01:14;1.23;;;0.60;;
33108;SDS011;19481;51.118;6.940;2022-07-04T09:06:16;1.42;;;0.47;;
33108;SDS011;19481;51.118;6.940;2022-07-04T09:11:19;4.03;;;0.43;;
33108;SDS011;19481;51.118;6.940;2022-07-04T09:16:21;3.58;;;0.40;;
33108;SDS011;19481;51.118;6.940;2022-07-04T09:21:23;2.47;;;0.90;;
33108;SDS011;19481;51.118;6.940;2022-07-04T09:26:45;0.88;;;0.40;;
33108;SDS011;19481;51.118;6.940;2022-07-04T09:31:48;1.55;;;0.52;;
33108;SDS011;19481;51.118;6.940;2022-07-04T09:36:51;1.92;;;0.65;;
33108;SDS011;19481;51.118;6.940;2022-07-04T09:41:57;5.38;;;0.77;;
33108;SDS011;19481;51.118;6.940;2022-07-04T09:47:00;2.28;;;0.52;;
33108;SDS011;19481;51.118;6.940;2022-07-04T09:52:21;5.35;;;0.52;;
33108;SDS011;19481;51.118;6.940;2022-07-04T09:57:23;3.15;;;1.20;;
33108;SDS011;19481;51.118;6.940;2022-07-04T10:02:25;3.60;;;0.50;;
33108;SDS011;19481;51.118;6.940;2022-07-04T10:07:30;2.85;;;1.75;;
33108;SDS011;19481;51.118;6.940;2022-07-04T10:12:34;0.97;;;0.60;;
33108;SDS011;19481;51.118;6.940;2022-07-04T10:17:36;2.70;;;1.00;;
33108;SDS011;19481;51.118;6.940;2022-07-04T10:22:38;0.77;;;0.40;;
33108;SDS011;19481;51.118;6.940;2022-07-04T10:27:41;2.30;;;0.40;;
33108;SDS011;19481;51.118;6.940;2022-07-04T10:32:43;8.98;;;0.60;;
33108;SDS011;19481;51.118;6.940;2022-07-04T10:37:57;0.65;;;0.43;;
33108;SDS011;19481;51.118;6.940;2022-07-04T10:43:01;1.15;;;0.57;;
33108;SDS011;19481;51.118;6.940;2022-07-04T10:48:03;2.13;;;0.52;;
33108;SDS011;19481;51.118;6.940;2022-07-04T10:53:09;1.73;;;1.63;;
33108;SDS011;19481;51.118;6.940;2022-07-04T10:58:12;2.97;;;0.70;;
33108;SDS011;19481;51.118;6.940;2022-07-04T11:03:43;1.83;;;0.40;;
33108;SDS011;19481;51.118;6.940;2022-07-04T11:14:31;1.02;;;0.70;;
33108;SDS011;19481;51.118;6.940;2022-07-04T11:19:35;1.30;;;0.50;;
33108;SDS011;19481;51.118;6.940;2022-07-04T11:24:37;2.30;;;0.60;;
33108;SDS011;19481;51.118;6.940;2022-07-04T11:29:43;0.65;;;0.45;;
33108;SDS011;19481;51.118;6.940;2022-07-04T11:34:50;0.93;;;0.60;;
33108;SDS011;19481;51.118;6.940;2022-07-04T11:39:52;1.55;;;1.45;;
33108;SDS011;19481;51.118;6.940;2022-07-04T11:45:16;1.73;;;1.30;;
33108;SDS011;19481;51.118;6.940;2022-07-04T11:50:22;5.15;;;0.75;;
33108;SDS011;19481;51.118;6.940;2022-07-04T11:55:23;8.95;;;5.78;;
33108;SDS011;19481;51.118;6.940;2022-07-04T12:00:27;3.70;;;2.78;;
33108;SDS011;19481;51.118;6.940;2022-07-04T12:05:31;1.27;;;0.88;;
33108;SDS011;19481;51.118;6.940;2022-07-04T12:10:34;3.35;;;1.23;;
33108;SDS011;19481;51.118;6.940;2022-07-04T12:15:38;1.92;;;0.73;;
33108;SDS011;19481;51.118;6.940;2022-07-04T12:20:40;2.80;;;1.98;;
33108;SDS011;19481;51.118;6.940;2022-07-04T12:25:44;0.68;;;0.68;;
33108;SDS011;19481;51.118;6.940;2022-07-04T12:30:49;0.88;;;0.50;;
33108;SDS011;19481;51.118;6.940;2022-07-04T12:35:52;0.88;;;0.52;;
33108;SDS011;19481;51.118;6.940;2022-07-04T12:40:59;1.98;;;0.60;;
33108;SDS011;19481;51.118;6.940;2022-07-04T12:46:03;1.60;;;0.70;;
33108;SDS011;19481;51.118;6.940;2022-07-04T12:51:09;1.77;;;0.57;;
33108;SDS011;19481;51.118;6.940;2022-07-04T12:56:26;0.63;;;0.40;;
33108;SDS011;19481;51.118;6.940;2022-07-04T13:01:30;1.03;;;0.70;;
33108;SDS011;19481;51.118;6.940;2022-07-04T13:06:32;1.15;;;0.60;;
33108;SDS011;19481;51.118;6.940;2022-07-04T13:11:35;1.13;;;0.60;;
33108;SDS011;19481;51.118;6.940;2022-07-04T13:16:56;2.55;;;0.80;;
33108;SDS011;19481;51.118;6.940;2022-07-04T13:21:57;2.25;;;0.70;;
33108;SDS011;19481;51.118;6.940;2022-07-04T13:26:59;2.13;;;0.60;;
33108;SDS011;19481;51.118;6.940;2022-07-04T13:32:03;2.28;;;1.38;;
33108;SDS011;19481;51.118;6.940;2022-07-04T13:37:06;4.00;;;0.80;;
33108;SDS011;19481;51.118;6.940;2022-07-04T13:42:07;1.50;;;0.75;;
33108;SDS011;19481;51.118;6.940;2022-07-04T13:47:11;3.40;;;0.90;;
33108;SDS011;19481;51.118;6.940;2022-07-04T13:52:12;3.50;;;0.77;;
33108;SDS011;19481;51.118;6.940;2022-07-04T13:57:14;1.77;;;0.63;;
33108;SDS011;19481;51.118;6.940;2022-07-04T14:02:17;2.10;;;0.75;;
33108;SDS011;19481;51.118;6.940;2022-07-04T14:07:18;4.50;;;0.90;;
33108;SDS011;19481;51.118;6.940;2022-07-04T14:12:22;0.85;;;0.60;;
33108;SDS011;19481;51.118;6.940;2022-07-04T14:17:25;3.65;;;0.80;;
33108;SDS011;19481;51.118;6.940;2022-07-04T14:22:26;3.15;;;0.82;;
33108;SDS011;19481;51.118;6.940;2022-07-04T14:27:28;4.40;;;1.50;;
33108;SDS011;19481;51.118;6.940;2022-07-04T14:32:31;2.80;;;0.80;;
33108;SDS011;19481;51.118;6.940;2022-07-04T14:37:33;7.57;;;0.80;;
33108;SDS011;19481;51.118;6.940;2022-07-04T14:42:35;6.88;;;1.67;;
33108;SDS011;19481;51.118;6.940;2022-07-04T14:47:38;1.33;;;0.70;;
33108;SDS011;19481;51.118;6.940;2022-07-04T14:52:41;2.45;;;1.33;;
33108;SDS011;19481;51.118;6.940;2022-07-04T14:57:43;1.38;;;0.50;;
33108;SDS011;19481;51.118;6.940;2022-07-04T15:02:45;4.05;;;2.45;;
33108;SDS011;19481;51.118;6.940;2022-07-04T15:07:48;3.22;;;2.47;;
33108;SDS011;19481;51.118;6.940;2022-07-04T15:12:50;1.08;;;0.95;;
33108;SDS011;19481;51.118;6.940;2022-07-04T15:17:53;1.52;;;0.70;;
33108;SDS011;19481;51.118;6.940;2022-07-04T15:22:54;0.95;;;0.50;;
33108;SDS011;19481;51.118;6.940;2022-07-04T15:28:13;6.47;;;0.80;;
33108;SDS011;19481;51.118;6.940;2022-07-04T15:33:17;6.20;;;2.30;;
33108;SDS011;19481;51.118;6.940;2022-07-04T15:38:19;2.42;;;0.70;;
33108;SDS011;19481;51.118;6.940;2022-07-04T15:43:21;1.45;;;0.68;;
33108;SDS011;19481;51.118;6.940;2022-07-04T15:48:24;4.43;;;0.73;;
33108;SDS011;19481;51.118;6.940;2022-07-04T15:53:26;5.30;;;0.75;;
33108;SDS011;19481;51.118;6.940;2022-07-04T15:58:27;1.00;;;0.60;;
33108;SDS011;19481;51.118;6.940;2022-07-04T16:03:30;1.25;;;0.60;;
33108;SDS011;19481;51.118;6.940;2022-07-04T16:08:32;2.35;;;0.70;;
33108;SDS011;19481;51.118;6.940;2022-07-04T16:13:34;4.60;;;0.90;;
33108;SDS011;19481;51.118;6.940;2022-07-04T16:18:37;1.20;;;0.60;;
33108;SDS011;19481;51.118;6.940;2022-07-04T16:23:38;1.88;;;0.73;;
33108;SDS011;19481;51.118;6.940;2022-07-04T16:28:40;3.58;;;0.80;;
33108;SDS011;19481;51.118;6.940;2022-07-04T16:33:43;0.73;;;0.50;;
33108;SDS011;19481;51.118;6.940;2022-07-04T16:38:45;3.60;;;0.70;;
33108;SDS011;19481;51.118;6.940;2022-07-04T16:43:46;4.28;;;0.65;;
33108;SDS011;19481;51.118;6.940;2022-07-04T16:48:49;2.58;;;0.73;;
33108;SDS011;19481;51.118;6.940;2022-07-04T16:53:52;1.02;;;0.70;;
33108;SDS011;19481;51.118;6.940;2022-07-04T16:58:54;1.35;;;0.50;;
33108;SDS011;19481;51.118;6.940;2022-07-04T17:03:57;0.70;;;0.68;;
33108;SDS011;19481;51.118;6.940;2022-07-04T17:08:59;0.80;;;0.70;;
33108;SDS011;19481;51.118;6.940;2022-07-04T17:14:00;0.60;;;0.60;;
33108;SDS011;19481;51.118;6.940;2022-07-04T17:19:03;3.08;;;0.60;;
33108;SDS011;19481;51.118;6.940;2022-07-04T17:24:05;1.88;;;0.70;;
33108;SDS011;19481;51.118;6.940;2022-07-04T17:29:07;1.05;;;0.65;;
33108;SDS011;19481;51.118;6.940;2022-07-04T17:34:10;1.88;;;0.60;;
33108;SDS011;19481;51.118;6.940;2022-07-04T17:39:12;2.53;;;0.60;;
33108;SDS011;19481;51.118;6.940;2022-07-04T17:44:15;2.15;;;0.70;;
33108;SDS011;19481;51.118;6.940;2022-07-04T17:49:19;1.20;;;0.80;;
33108;SDS011;19481;51.118;6.940;2022-07-04T17:54:21;1.85;;;1.02;;
33108;SDS011;19481;51.118;6.940;2022-07-04T17:59:22;3.17;;;2.10;;
33108;SDS011;19481;51.118;6.940;2022-07-04T18:04:25;2.28;;;0.80;;
33108;SDS011;19481;51.118;6.940;2022-07-04T18:09:27;6.35;;;4.78;;
33108;SDS011;19481;51.118;6.940;2022-07-04T18:14:29;3.47;;;2.85;;
33108;SDS011;19481;51.118;6.940;2022-07-04T18:19:32;4.18;;;1.83;;
33108;SDS011;19481;51.118;6.940;2022-07-04T18:24:33;3.17;;;0.80;;
33108;SDS011;19481;51.118;6.940;2022-07-04T18:29:35;11.38;;;5.45;;
33108;SDS011;19481;51.118;6.940;2022-07-04T18:34:39;3.03;;;1.50;;
33108;SDS011;19481;51.118;6.940;2022-07-04T18:39:40;1.98;;;0.90;;
33108;SDS011;19481;51.118;6.940;2022-07-04T18:44:42;1.73;;;0.70;;
33108;SDS011;19481;51.118;6.940;2022-07-04T18:49:45;1.85;;;1.00;;
33108;SDS011;19481;51.118;6.940;2022-07-04T18:54:46;0.98;;;0.70;;
33108;SDS011;19481;51.118;6.940;2022-07-04T18:59:48;2.58;;;1.60;;
33108;SDS011;19481;51.118;6.940;2022-07-04T19:04:51;1.70;;;1.02;;
33108;SDS011;19481;51.118;6.940;2022-07-04T19:09:53;1.55;;;1.23;;
33108;SDS011;19481;51.118;6.940;2022-07-04T19:14:55;1.77;;;0.80;;
33108;SDS011;19481;51.118;6.940;2022-07-04T19:19:58;2.15;;;0.73;;
33108;SDS011;19481;51.118;6.940;2022-07-04T19:24:59;3.63;;;0.80;;
33108;SDS011;19481;51.118;6.940;2022-07-04T19:30:02;1.00;;;0.75;;
33108;SDS011;19481;51.118;6.940;2022-07-04T19:35:07;1.65;;;0.80;;
33108;SDS011;19481;51.118;6.940;2022-07-04T19:40:10;1.50;;;0.70;;
33108;SDS011;19481;51.118;6.940;2022-07-04T19:45:12;3.05;;;1.10;;
33108;SDS011;19481;51.118;6.940;2022-07-04T19:50:15;3.45;;;2.08;;
33108;SDS011;19481;51.118;6.940;2022-07-04T19:55:17;3.55;;;3.03;;
33108;SDS011;19481;51.118;6.940;2022-07-04T20:00:19;3.50;;;2.28;;
33108;SDS011;19481;51.118;6.940;2022-07-04T20:05:23;3.28;;;1.30;;
33108;SDS011;19481;51.118;6.940;2022-07-04T20:10:25;3.10;;;1.27;;
33108;SDS011;19481;51.118;6.940;2022-07-04T20:15:27;1.73;;;1.35;;
33108;SDS011;19481;51.118;6.940;2022-07-04T20:20:30;1.38;;;0.90;;
33108;SDS011;19481;51.118;6.940;2022-07-04T20:25:31;1.00;;;0.90;;
33108;SDS011;19481;51.118;6.940;2022-07-04T20:30:33;1.73;;;1.00;;
33108;SDS011;19481;51.118;6.940;2022-07-04T20:35:36;0.93;;;0.90;;
33108;SDS011;19481;51.118;6.940;2022-07-04T20:40:37;2.60;;;1.10;;
33108;SDS011;19481;51.118;6.940;2022-07-04T20:45:39;1.40;;;0.90;;
33108;SDS011;19481;51.118;6.940;2022-07-04T20:50:42;4.15;;;1.08;;
33108;SDS011;19481;51.118;6.940;2022-07-04T20:55:45;6.13;;;3.83;;
33108;SDS011;19481;51.118;6.940;2022-07-04T21:00:46;4.00;;;2.20;;
33108;SDS011;19481;51.118;6.940;2022-07-04T21:05:49;6.50;;;3.58;;
33108;SDS011;19481;51.118;6.940;2022-07-04T21:10:51;8.55;;;5.55;;
33108;SDS011;19481;51.118;6.940;2022-07-04T21:15:53;4.75;;;3.30;;
33108;SDS011;19481;51.118;6.940;2022-07-04T21:20:55;15.65;;;9.13;;
33108;SDS011;19481;51.118;6.940;2022-07-04T21:25:57;7.22;;;5.25;;
33108;SDS011;19481;51.118;6.940;2022-07-04T21:30:59;9.38;;;2.85;;
33108;SDS011;19481;51.118;6.940;2022-07-04T21:36:02;5.28;;;1.50;;
33108;SDS011;19481;51.118;6.940;2022-07-04T21:41:04;2.65;;;1.50;;
33108;SDS011;19481;51.118;6.940;2022-07-04T21:46:06;3.70;;;1.75;;
33108;SDS011;19481;51.118;6.940;2022-07-04T21:51:09;4.63;;;2.53;;
33108;SDS011;19481;51.118;6.940;2022-07-04T21:56:11;6.00;;;3.42;;
33108;SDS011;19481;51.118;6.940;2022-07-04T22:01:13;5.45;;;3.65;;
33108;SDS011;19481;51.118;6.940;2022-07-04T22:06:16;18.60;;;9.55;;
33108;SDS011;19481;51.118;6.940;2022-07-04T22:11:18;8.73;;;5.38;;
33108;SDS011;19481;51.118;6.940;2022-07-04T22:16:21;8.50;;;4.55;;
33108;SDS011;19481;51.118;6.940;2022-07-04T22:21:24;5.05;;;3.47;;
33108;SDS011;19481;51.118;6.940;2022-07-04T22:26:26;15.07;;;8.10;;
33108;SDS011;19481;51.118;6.940;2022-07-04T22:31:28;14.80;;;8.60;;
33108;SDS011;19481;51.118;6.940;2022-07-04T22:36:31;10.02;;;5.82;;
33108;SDS011;19481;51.118;6.940;2022-07-04T22:41:33;12.40;;;3.47;;
33108;SDS011;19481;51.118;6.940;2022-07-04T22:46:35;3.05;;;2.28;;
33108;SDS011;19481;51.118;6.940;2022-07-04T22:51:38;2.58;;;1.88;;
33108;SDS011;19481;51.118;6.940;2022-07-04T22:56:39;3.05;;;2.00;;
33108;SDS011;19481;51.118;6.940;2022-07-04T23:01:41;2.50;;;1.92;;
33108;SDS011;19481;51.118;6.940;2022-07-04T23:06:44;3.97;;;2.28;;
33108;SDS011;19481;51.118;6.940;2022-07-04T23:11:45;5.88;;;2.40;;
33108;SDS011;19481;51.118;6.940;2022-07-04T23:16:47;6.82;;;2.50;;
33108;SDS011;19481;51.118;6.940;2022-07-04T23:21:50;3.83;;;2.15;;
33108;SDS011;19481;51.118;6.940;2022-07-04T23:26:51;6.32;;;2.30;;
33108;SDS011;19481;51.118;6.940;2022-07-04T23:31:53;5.10;;;2.13;;
33108;SDS011;19481;51.118;6.940;2022-07-04T23:36:56;5.65;;;2.15;;
33108;SDS011;19481;51.118;6.940;2022-07-04T23:41:58;3.17;;;2.10;;
33108;SDS011;19481;51.118;6.940;2022-07-04T23:46:59;4.43;;;1.85;;
33108;SDS011;19481;51.118;6.940;2022-07-04T23:52:03;2.17;;;1.80;;
33108;SDS011;19481;51.118;6.940;2022-07-04T23:57:05;3.50;;;1.90;;
